createdAt,value
2023-02-05T00:03:49.676Z,-2.32
2023-02-05T00:07:51.150Z,-1.94
2023-02-05T00:11:52.588Z,-1.90
2023-02-05T00:15:54.064Z,-1.76
2023-02-05T00:19:55.544Z,-2.42
2023-02-05T00:23:57.046Z,-2.44
2023-02-05T00:27:58.566Z,-2.44
2023-02-05T00:32:00.033Z,-2.39
2023-02-05T00:36:01.559Z,-2.35
2023-02-05T00:40:04.254Z,-2.63
2023-02-05T00:44:06.166Z,-2.45
2023-02-05T00:48:07.761Z,-2.73
2023-02-05T00:52:09.296Z,-2.60
2023-02-05T00:56:10.953Z,-3.13
2023-02-05T01:00:13.488Z,-3.25
2023-02-05T01:04:14.968Z,-2.61
2023-02-05T01:08:16.498Z,-2.53
2023-02-05T01:12:18.031Z,-2.41
2023-02-05T01:16:19.512Z,-2.61
2023-02-05T01:20:21.744Z,-2.65
2023-02-05T01:24:23.242Z,-2.75
2023-02-05T01:28:24.870Z,-2.80
2023-02-05T01:32:28.265Z,-2.91
2023-02-05T01:36:32.697Z,-3.41
2023-02-05T01:40:34.259Z,-3.25
2023-02-05T01:44:36.415Z,-3.66
2023-02-05T01:48:42.508Z,-3.38
2023-02-05T01:52:44.062Z,-3.33
2023-02-05T01:56:52.247Z,-3.38
2023-02-05T02:00:53.909Z,-3.41
2023-02-05T02:05:00.651Z,-3.51
2023-02-05T02:09:05.267Z,-3.43
2023-02-05T02:13:06.822Z,-3.45
2023-02-05T02:17:10.652Z,-3.59
2023-02-05T02:21:35.719Z,-3.50
2023-02-05T02:25:43.056Z,-4.37
2023-02-05T02:30:05.841Z,-3.87
2023-02-05T02:34:26.120Z,-3.71
2023-02-05T02:38:32.312Z,-3.73
2023-02-05T02:42:40.978Z,-3.82
2023-02-05T02:46:54.154Z,-3.82
2023-02-05T02:50:58.468Z,-3.93
2023-02-05T02:55:05.373Z,-4.74
2023-02-05T02:59:12.016Z,-4.39
2023-02-05T03:03:16.760Z,-4.19
2023-02-05T03:07:28.533Z,-4.02
2023-02-05T03:11:30.073Z,-4.26
2023-02-05T03:15:32.391Z,-4.35
2023-02-05T03:19:34.227Z,-4.37
2023-02-05T03:23:35.732Z,-4.25
2023-02-05T03:27:37.976Z,-4.14
2023-02-05T03:32:04.662Z,-4.11
2023-02-05T03:36:11.449Z,-4.14
2023-02-05T03:40:34.301Z,-4.15
2023-02-05T03:44:44.781Z,-4.17
2023-02-05T03:49:02.261Z,-4.23
2023-02-05T03:53:26.339Z,-4.30
2023-02-05T03:57:35.360Z,-4.35
2023-02-05T04:01:37.415Z,-4.43
2023-02-05T04:05:38.929Z,-4.22
2023-02-05T04:09:40.387Z,-4.29
2023-02-05T04:13:41.864Z,-4.14
2023-02-05T04:17:43.309Z,-4.14
2023-02-05T04:21:44.800Z,-4.16
2023-02-05T04:25:46.238Z,-4.04
2023-02-05T04:29:47.705Z,-4.01
2023-02-05T04:33:49.137Z,-4.10
2023-02-05T04:37:50.684Z,-3.96
2023-02-05T04:41:52.175Z,-4.16
2023-02-05T04:45:53.695Z,-4.06
2023-02-05T04:49:55.210Z,-4.00
2023-02-05T04:53:56.712Z,-3.95
2023-02-05T04:57:58.740Z,-3.85
2023-02-05T05:02:00.566Z,-3.93
2023-02-05T05:06:06.241Z,-3.95
2023-02-05T05:10:08.128Z,-4.04
2023-02-05T05:14:09.661Z,-3.94
2023-02-05T05:18:11.602Z,-3.98
2023-02-05T05:22:13.027Z,-3.91
2023-02-05T05:26:14.678Z,-3.86
2023-02-05T05:30:16.249Z,-4.42
2023-02-05T05:34:17.698Z,-4.43
2023-02-05T05:38:19.170Z,-4.13
2023-02-05T05:42:39.118Z,-4.26
2023-02-05T05:46:40.572Z,-4.04
2023-02-05T05:50:42.041Z,-3.92
2023-02-05T05:54:43.551Z,-3.97
2023-02-05T05:58:45.335Z,-4.27
2023-02-05T06:02:46.956Z,-4.17
2023-02-05T06:06:48.535Z,-4.10
2023-02-05T06:10:50.021Z,-4.56
2023-02-05T06:14:51.453Z,-4.31
2023-02-05T06:18:54.649Z,-4.18
2023-02-05T06:22:56.052Z,-4.73
2023-02-05T06:26:57.526Z,-4.49
2023-02-05T06:30:59.066Z,-4.33
2023-02-05T06:35:00.575Z,-4.23
2023-02-05T06:39:02.059Z,-4.72
2023-02-05T06:43:03.639Z,-4.73
2023-02-05T06:47:05.117Z,-4.41
2023-02-05T06:51:06.656Z,-4.21
2023-02-05T06:55:08.305Z,-4.41
2023-02-05T06:59:09.783Z,-4.37
2023-02-05T07:03:11.244Z,-4.57
2023-02-05T07:07:13.633Z,-4.13
2023-02-05T07:11:15.641Z,-3.80
2023-02-05T07:15:17.190Z,-3.66
2023-02-05T07:19:18.654Z,-3.55
2023-02-05T07:23:20.110Z,-3.64
2023-02-05T07:27:21.574Z,-3.81
2023-02-05T07:31:23.160Z,-3.51
2023-02-05T07:35:24.667Z,-3.42
2023-02-05T07:39:27.997Z,-3.23
2023-02-05T07:43:29.454Z,-3.22
2023-02-05T07:47:31.031Z,-3.11
2023-02-05T07:51:32.937Z,-3.16
2023-02-05T07:55:35.059Z,-3.11
2023-02-05T07:59:36.845Z,-3.05
2023-02-05T08:03:38.382Z,-3.00
2023-02-05T08:07:39.904Z,-2.82
2023-02-05T08:11:41.370Z,-2.81
2023-02-05T08:15:42.848Z,-2.89
2023-02-05T08:19:44.358Z,-2.71
2023-02-05T08:23:45.773Z,-2.63
2023-02-05T08:27:49.047Z,-2.49
2023-02-05T08:31:51.670Z,-2.46
2023-02-05T08:35:53.192Z,-2.26
2023-02-05T08:39:54.865Z,-2.35
2023-02-05T08:43:56.613Z,-2.21
2023-02-05T08:47:58.189Z,-2.00
2023-02-05T08:51:59.673Z,-1.86
2023-02-05T08:56:03.202Z,-2.01
2023-02-05T09:00:05.745Z,-1.78
2023-02-05T09:04:08.149Z,-1.75
2023-02-05T09:08:09.660Z,-1.74
2023-02-05T09:12:11.225Z,-1.79
2023-02-05T09:16:12.758Z,-1.73
2023-02-05T09:20:14.336Z,-1.71
2023-02-05T09:24:15.774Z,-1.68
2023-02-05T09:28:17.455Z,-1.46
2023-02-05T09:32:19.105Z,-1.53
2023-02-05T09:36:23.221Z,-1.76
2023-02-05T09:40:29.308Z,-1.56
2023-02-05T09:44:45.611Z,-1.45
2023-02-05T09:49:13.042Z,-1.28
2023-02-05T09:53:19.248Z,-1.31
2023-02-05T09:57:32.263Z,-1.13
2023-02-05T10:01:45.355Z,-0.99
2023-02-05T10:06:14.480Z,-0.76
2023-02-05T10:10:22.517Z,-0.83
2023-02-05T10:14:32.891Z,-0.71
2023-02-05T10:18:53.006Z,-0.48
2023-02-05T10:23:17.254Z,-0.19
2023-02-05T10:27:24.213Z,-0.05
2023-02-05T10:31:50.288Z,-0.23
2023-02-05T10:36:01.137Z,0.08
2023-02-05T10:40:13.046Z,-0.15
2023-02-05T10:44:26.693Z,0.06
2023-02-05T10:48:51.003Z,-0.18
2023-02-05T10:52:52.698Z,0.03
2023-02-05T10:56:55.493Z,-0.03
2023-02-05T11:00:57.414Z,-0.09
2023-02-05T11:05:06.195Z,-0.04
2023-02-05T11:09:26.047Z,0.33
2023-02-05T11:13:28.139Z,0.59
2023-02-05T11:17:37.382Z,0.71
2023-02-05T11:21:48.217Z,0.44
2023-02-05T11:26:01.398Z,0.67
2023-02-05T11:30:52.633Z,0.51
2023-02-05T11:35:09.829Z,0.60
2023-02-05T11:39:27.394Z,0.55
2023-02-05T11:43:39.788Z,0.77
2023-02-05T11:47:41.286Z,0.96
2023-02-05T11:51:45.641Z,1.01
2023-02-05T11:55:55.288Z,0.90
2023-02-05T11:59:59.910Z,0.91
2023-02-05T12:04:02.801Z,0.88
2023-02-05T12:08:15.233Z,1.26
2023-02-05T12:12:22.440Z,0.98
2023-02-05T12:16:46.248Z,1.06
2023-02-05T12:21:04.840Z,1.12
2023-02-05T12:25:34.203Z,1.44
2023-02-05T12:30:00.657Z,1.53
2023-02-05T12:34:24.297Z,1.82
2023-02-05T12:38:42.537Z,2.06
2023-02-05T12:43:01.870Z,2.25
2023-02-05T12:47:14.072Z,2.39
2023-02-05T12:51:45.766Z,2.24
2023-02-05T12:56:11.927Z,2.28
2023-02-05T13:00:19.842Z,1.65
2023-02-05T13:04:27.037Z,1.81
2023-02-05T13:08:46.948Z,2.09
2023-02-05T13:13:02.099Z,1.95
2023-02-05T13:17:11.519Z,2.38
2023-02-05T13:21:39.193Z,2.67
2023-02-05T13:26:05.015Z,2.59
2023-02-05T13:30:15.664Z,2.81
2023-02-05T13:34:19.461Z,2.48
2023-02-05T13:38:26.894Z,2.35
2023-02-05T13:42:49.976Z,2.62
2023-02-05T13:47:03.841Z,3.12
2023-02-05T13:51:32.379Z,2.85
2023-02-05T13:55:45.894Z,2.72
2023-02-05T13:59:52.860Z,2.63
2023-02-05T14:04:08.646Z,2.60
2023-02-05T14:08:23.406Z,2.81
2023-02-05T14:12:38.297Z,3.32
2023-02-05T14:16:39.837Z,3.51
2023-02-05T14:20:44.574Z,3.45
2023-02-05T14:24:48.649Z,3.06
2023-02-05T14:28:51.281Z,3.16
2023-02-05T14:32:52.741Z,2.67
2023-02-05T14:36:54.916Z,3.28
2023-02-05T14:41:04.328Z,2.63
2023-02-05T14:45:06.757Z,2.61
2023-02-05T14:49:22.929Z,3.11
2023-02-05T14:53:26.683Z,3.68
2023-02-05T14:57:50.477Z,3.89
2023-02-05T15:01:54.413Z,3.82
2023-02-05T15:06:15.222Z,3.99
2023-02-05T15:10:23.450Z,3.53
2023-02-05T15:14:32.529Z,3.52
2023-02-05T15:18:49.164Z,2.77
2023-02-05T15:23:03.496Z,2.72
2023-02-05T15:27:18.719Z,2.24
2023-02-05T15:31:32.515Z,1.94
2023-02-05T15:35:34.874Z,1.94
2023-02-05T15:39:45.782Z,1.79
2023-02-05T15:44:03.578Z,1.35
2023-02-05T15:48:10.992Z,0.92
2023-02-05T15:52:19.051Z,1.03
2023-02-05T15:56:20.474Z,0.41
2023-02-05T16:00:29.333Z,0.32
2023-02-05T16:04:34.146Z,0.11
2023-02-05T16:08:35.719Z,0.17
2023-02-05T16:12:37.179Z,0.19
2023-02-05T16:16:41.010Z,-0.14
2023-02-05T16:20:50.566Z,-0.04
2023-02-05T16:24:57.108Z,-0.14
2023-02-05T16:29:07.680Z,-0.12
2023-02-05T16:33:33.199Z,-0.30
2023-02-05T16:37:36.016Z,-0.54
2023-02-05T16:41:42.524Z,-0.49
2023-02-05T16:46:20.672Z,-0.58
2023-02-05T16:50:42.604Z,-0.55
2023-02-05T16:54:44.152Z,-0.54
2023-02-05T16:58:49.891Z,-0.58
2023-02-05T17:02:57.323Z,-0.60
2023-02-05T17:07:01.018Z,-0.59
2023-02-05T17:11:05.448Z,-0.46
2023-02-05T17:15:12.926Z,-0.67
2023-02-05T17:19:32.786Z,-0.72
2023-02-05T17:23:34.264Z,-0.78
2023-02-05T17:27:39.785Z,-0.71
2023-02-05T17:31:41.735Z,-0.65
2023-02-05T17:35:43.389Z,-0.74
2023-02-05T17:39:44.847Z,-0.84
2023-02-05T17:43:46.275Z,-0.91
2023-02-05T17:47:47.981Z,-1.06
2023-02-05T17:51:49.536Z,-1.44
2023-02-05T17:55:50.997Z,-1.46
2023-02-05T17:59:52.525Z,-1.84
2023-02-05T18:03:54.090Z,-1.52
2023-02-05T18:07:58.065Z,-1.60
2023-02-05T18:11:59.544Z,-1.50
2023-02-05T18:16:03.385Z,-1.38
2023-02-05T18:20:05.766Z,-2.11
2023-02-05T18:24:07.309Z,-2.01
2023-02-05T18:28:08.797Z,-1.75
2023-02-05T18:32:10.601Z,-1.86
2023-02-05T18:36:14.547Z,-2.15
2023-02-05T18:40:16.077Z,-1.96
2023-02-05T18:44:17.580Z,-1.90
2023-02-05T18:48:19.102Z,-2.42
2023-02-05T18:52:22.866Z,-2.18
2023-02-05T18:56:27.153Z,-2.14
2023-02-05T19:00:28.689Z,-2.49
2023-02-05T19:04:32.957Z,-2.69
2023-02-05T19:08:34.842Z,-2.31
2023-02-05T19:12:36.475Z,-2.42
2023-02-05T19:16:38.953Z,-2.53
2023-02-05T19:20:40.414Z,-2.76
2023-02-05T19:24:43.215Z,-2.54
2023-02-05T19:28:51.284Z,-2.39
2023-02-05T19:32:52.790Z,-2.80
2023-02-05T19:36:54.300Z,-3.42
2023-02-05T19:40:55.873Z,-3.10
2023-02-05T19:44:57.345Z,-3.03
2023-02-05T19:49:05.006Z,-2.75
2023-02-05T19:53:07.310Z,-2.72
2023-02-05T19:57:08.786Z,-2.91
2023-02-05T20:01:13.763Z,-2.98
2023-02-05T20:05:15.384Z,-3.18
2023-02-05T20:09:17.629Z,-3.36
2023-02-05T20:13:19.116Z,-2.99
2023-02-05T20:17:20.657Z,-3.18
2023-02-05T20:21:22.832Z,-3.25
2023-02-05T20:25:24.253Z,-3.18
2023-02-05T20:29:44.118Z,-3.49
2023-02-05T20:33:48.220Z,-3.42
2023-02-05T20:37:49.676Z,-3.37
2023-02-05T20:41:52.212Z,-3.60
2023-02-05T20:45:53.681Z,-3.78
2023-02-05T20:49:55.248Z,-3.81
2023-02-05T20:53:58.826Z,-3.58
2023-02-05T20:58:00.467Z,-3.83
2023-02-05T21:02:03.890Z,-3.87
2023-02-05T21:06:05.695Z,-3.71
2023-02-05T21:10:07.380Z,-4.02
2023-02-05T21:14:09.270Z,-3.96
2023-02-05T21:18:10.929Z,-4.34
2023-02-05T21:22:12.439Z,-4.01
2023-02-05T21:26:34.531Z,-3.71
2023-02-05T21:30:36.351Z,-3.62
2023-02-05T21:34:38.014Z,-3.71
2023-02-05T21:38:42.291Z,-3.60
2023-02-05T21:42:43.895Z,-3.73
2023-02-05T21:46:45.394Z,-3.94
2023-02-05T21:50:46.918Z,-4.07
2023-02-05T21:54:50.537Z,-3.85
2023-02-05T21:58:52.125Z,-4.29
2023-02-05T22:02:53.585Z,-4.34
2023-02-05T22:06:55.034Z,-3.95
2023-02-05T22:11:00.965Z,-4.21
2023-02-05T22:15:02.379Z,-4.45
2023-02-05T22:19:05.088Z,-4.53
2023-02-05T22:23:06.556Z,-4.73
2023-02-05T22:27:08.125Z,-4.62
2023-02-05T22:31:12.112Z,-4.46
2023-02-05T22:35:13.616Z,-5.10
2023-02-05T22:39:15.097Z,-4.78
2023-02-05T22:43:17.374Z,-4.43
2023-02-05T22:47:18.874Z,-4.98
2023-02-05T22:51:28.854Z,-4.61
2023-02-05T22:55:30.319Z,-5.01
2023-02-05T22:59:31.772Z,-4.67
2023-02-05T23:03:33.295Z,-5.05
2023-02-05T23:07:34.768Z,-4.72
2023-02-05T23:11:36.473Z,-4.72
2023-02-05T23:15:38.059Z,-5.10
2023-02-05T23:19:39.525Z,-5.03
2023-02-05T23:23:41.619Z,-4.73
2023-02-05T23:27:43.105Z,-5.04
2023-02-05T23:31:45.504Z,-4.97
2023-02-05T23:35:46.959Z,-5.21
2023-02-05T23:39:48.491Z,-4.90
2023-02-05T23:43:49.984Z,-4.89
2023-02-05T23:47:51.436Z,-4.87
2023-02-05T23:51:55.346Z,-4.74
2023-02-05T23:55:56.836Z,-4.77
2023-02-05T23:59:58.317Z,-4.95
